sensor_id;sensor_type;location;lat;lon;timestamp;temperature;humidity
38131;DHT22;23947;51.894;4.622;2023-01-10T00:00:27;7.10;1.00
38131;DHT22;23947;51.894;4.622;2023-01-10T00:02:59;7.10;1.00
38131;DHT22;23947;51.894;4.622;2023-01-10T00:05:25;7.10;1.00
38131;DHT22;23947;51.894;4.622;2023-01-10T00:07:51;7.10;1.00
38131;DHT22;23947;51.894;4.622;2023-01-10T00:10:17;7.10;1.00
38131;DHT22;23947;51.894;4.622;2023-01-10T00:12:42;7.00;1.00
38131;DHT22;23947;51.894;4.622;2023-01-10T00:15:26;7.10;1.00
38131;DHT22;23947;51.894;4.622;2023-01-10T00:17:52;7.20;1.00
38131;DHT22;23947;51.894;4.622;2023-01-10T00:20:18;7.20;1.00
38131;DHT22;23947;51.894;4.622;2023-01-10T00:22:44;7.20;1.00
38131;DHT22;23947;51.894;4.622;2023-01-10T00:25:14;7.20;1.00
38131;DHT22;23947;51.894;4.622;2023-01-10T00:27:40;7.30;1.00
38131;DHT22;23947;51.894;4.622;2023-01-10T00:30:06;7.20;1.00
38131;DHT22;23947;51.894;4.622;2023-01-10T00:32:43;7.20;1.00
38131;DHT22;23947;51.894;4.622;2023-01-10T00:35:09;7.30;1.00
38131;DHT22;23947;51.894;4.622;2023-01-10T00:37:36;7.30;1.00
38131;DHT22;23947;51.894;4.622;2023-01-10T00:40:02;7.20;1.00
38131;DHT22;23947;51.894;4.622;2023-01-10T00:42:28;7.20;1.00
38131;DHT22;23947;51.894;4.622;2023-01-10T00:45:12;7.20;1.00
38131;DHT22;23947;51.894;4.622;2023-01-10T00:47:38;7.20;1.00
38131;DHT22;23947;51.894;4.622;2023-01-10T00:50:04;7.20;1.00
38131;DHT22;23947;51.894;4.622;2023-01-10T00:52:30;7.20;1.00
38131;DHT22;23947;51.894;4.622;2023-01-10T00:54:56;7.20;1.00
38131;DHT22;23947;51.894;4.622;2023-01-10T00:57:22;7.20;1.00
38131;DHT22;23947;51.894;4.622;2023-01-10T00:59:47;7.10;1.00
38131;DHT22;23947;51.894;4.622;2023-01-10T01:02:13;7.20;1.00
38131;DHT22;23947;51.894;4.622;2023-01-10T01:04:38;7.30;1.00
38131;DHT22;23947;51.894;4.622;2023-01-10T01:07:04;7.30;1.00
38131;DHT22;23947;51.894;4.622;2023-01-10T01:09:30;7.30;1.00
38131;DHT22;23947;51.894;4.622;2023-01-10T01:11:55;7.30;1.00
38131;DHT22;23947;51.894;4.622;2023-01-10T01:14:22;7.30;1.00
38131;DHT22;23947;51.894;4.622;2023-01-10T01:16:48;7.30;1.00
38131;DHT22;23947;51.894;4.622;2023-01-10T01:19:14;7.40;1.00
38131;DHT22;23947;51.894;4.622;2023-01-10T01:21:39;7.40;1.00
38131;DHT22;23947;51.894;4.622;2023-01-10T01:24:05;7.50;1.00
38131;DHT22;23947;51.894;4.622;2023-01-10T01:26:31;7.60;1.00
38131;DHT22;23947;51.894;4.622;2023-01-10T01:28:59;7.60;1.00
38131;DHT22;23947;51.894;4.622;2023-01-10T01:31:25;7.70;1.00
38131;DHT22;23947;51.894;4.622;2023-01-10T01:33:50;7.70;1.00
38131;DHT22;23947;51.894;4.622;2023-01-10T01:36:16;7.60;1.00
38131;DHT22;23947;51.894;4.622;2023-01-10T01:38:42;7.70;1.00
38131;DHT22;23947;51.894;4.622;2023-01-10T01:41:08;7.70;1.00
38131;DHT22;23947;51.894;4.622;2023-01-10T01:44:03;7.70;1.00
38131;DHT22;23947;51.894;4.622;2023-01-10T01:46:32;7.70;1.00
38131;DHT22;23947;51.894;4.622;2023-01-10T01:48:59;7.70;1.00
38131;DHT22;23947;51.894;4.622;2023-01-10T01:51:28;7.80;1.00
38131;DHT22;23947;51.894;4.622;2023-01-10T01:53:59;7.80;1.00
38131;DHT22;23947;51.894;4.622;2023-01-10T01:56:37;7.80;1.00
38131;DHT22;23947;51.894;4.622;2023-01-10T01:59:15;7.80;1.00
38131;DHT22;23947;51.894;4.622;2023-01-10T02:01:44;7.80;1.00
38131;DHT22;23947;51.894;4.622;2023-01-10T02:04:20;7.80;1.00
38131;DHT22;23947;51.894;4.622;2023-01-10T02:06:48;7.80;1.00
38131;DHT22;23947;51.894;4.622;2023-01-10T02:09:21;7.90;1.00
38131;DHT22;23947;51.894;4.622;2023-01-10T02:11:47;7.90;1.00
38131;DHT22;23947;51.894;4.622;2023-01-10T02:14:13;7.90;1.00
38131;DHT22;23947;51.894;4.622;2023-01-10T02:16:39;7.90;1.00
38131;DHT22;23947;51.894;4.622;2023-01-10T02:19:17;7.90;1.00
38131;DHT22;23947;51.894;4.622;2023-01-10T02:30:13;7.90;1.00
38131;DHT22;23947;51.894;4.622;2023-01-10T02:33:38;7.90;1.00
38131;DHT22;23947;51.894;4.622;2023-01-10T02:43:38;7.90;1.00
38131;DHT22;23947;51.894;4.622;2023-01-10T02:46:09;7.90;1.00
38131;DHT22;23947;51.894;4.622;2023-01-10T02:48:36;7.80;1.00
38131;DHT22;23947;51.894;4.622;2023-01-10T02:51:26;7.90;1.00
38131;DHT22;23947;51.894;4.622;2023-01-10T02:54:21;7.90;1.00
38131;DHT22;23947;51.894;4.622;2023-01-10T03:07:35;7.90;1.00
38131;DHT22;23947;51.894;4.622;2023-01-10T03:10:31;7.80;1.00
38131;DHT22;23947;51.894;4.622;2023-01-10T03:13:15;7.80;1.00
38131;DHT22;23947;51.894;4.622;2023-01-10T03:15:44;7.90;1.00
38131;DHT22;23947;51.894;4.622;2023-01-10T03:18:26;7.90;1.00
38131;DHT22;23947;51.894;4.622;2023-01-10T03:20:53;7.80;1.00
38131;DHT22;23947;51.894;4.622;2023-01-10T03:23:21;7.80;1.00
38131;DHT22;23947;51.894;4.622;2023-01-10T03:25:48;7.90;1.00
38131;DHT22;23947;51.894;4.622;2023-01-10T03:31:27;7.80;1.00
38131;DHT22;23947;51.894;4.622;2023-01-10T03:33:55;7.80;1.00
38131;DHT22;23947;51.894;4.622;2023-01-10T03:36:34;7.80;1.00
38131;DHT22;23947;51.894;4.622;2023-01-10T03:39:22;7.80;1.00
38131;DHT22;23947;51.894;4.622;2023-01-10T03:42:01;7.70;1.00
38131;DHT22;23947;51.894;4.622;2023-01-10T03:44:37;7.80;1.00
38131;DHT22;23947;51.894;4.622;2023-01-10T03:49:44;7.70;1.00
38131;DHT22;23947;51.894;4.622;2023-01-10T03:52:15;7.70;1.00
38131;DHT22;23947;51.894;4.622;2023-01-10T03:54:42;7.70;1.00
38131;DHT22;23947;51.894;4.622;2023-01-10T03:57:17;7.70;1.00
38131;DHT22;23947;51.894;4.622;2023-01-10T03:59:44;7.70;1.00
38131;DHT22;23947;51.894;4.622;2023-01-10T04:02:10;7.70;1.00
38131;DHT22;23947;51.894;4.622;2023-01-10T04:04:35;7.70;1.00
38131;DHT22;23947;51.894;4.622;2023-01-10T04:07:01;7.80;1.00
38131;DHT22;23947;51.894;4.622;2023-01-10T04:09:27;7.80;1.00
38131;DHT22;23947;51.894;4.622;2023-01-10T04:11:52;7.70;1.00
38131;DHT22;23947;51.894;4.622;2023-01-10T04:14:18;7.80;1.00
38131;DHT22;23947;51.894;4.622;2023-01-10T04:16:44;7.80;1.00
38131;DHT22;23947;51.894;4.622;2023-01-10T04:19:09;7.80;1.00
38131;DHT22;23947;51.894;4.622;2023-01-10T04:21:35;7.80;1.00
38131;DHT22;23947;51.894;4.622;2023-01-10T04:24:00;7.80;1.00
38131;DHT22;23947;51.894;4.622;2023-01-10T04:26:26;7.70;1.00
38131;DHT22;23947;51.894;4.622;2023-01-10T04:28:52;7.70;1.00
38131;DHT22;23947;51.894;4.622;2023-01-10T04:31:17;7.70;1.00
38131;DHT22;23947;51.894;4.622;2023-01-10T04:33:43;7.60;1.00
38131;DHT22;23947;51.894;4.622;2023-01-10T04:36:08;7.60;1.00
38131;DHT22;23947;51.894;4.622;2023-01-10T04:38:34;7.60;1.00
38131;DHT22;23947;51.894;4.622;2023-01-10T04:41:00;7.60;1.00
38131;DHT22;23947;51.894;4.622;2023-01-10T04:43:25;7.50;1.00
38131;DHT22;23947;51.894;4.622;2023-01-10T04:45:51;7.50;1.00
38131;DHT22;23947;51.894;4.622;2023-01-10T04:48:17;7.50;1.00
38131;DHT22;23947;51.894;4.622;2023-01-10T04:50:48;7.50;1.00
38131;DHT22;23947;51.894;4.622;2023-01-10T04:53:14;7.40;1.00
38131;DHT22;23947;51.894;4.622;2023-01-10T04:55:40;7.40;1.00
38131;DHT22;23947;51.894;4.622;2023-01-10T04:58:06;7.30;1.00
38131;DHT22;23947;51.894;4.622;2023-01-10T05:00:31;7.30;1.00
38131;DHT22;23947;51.894;4.622;2023-01-10T05:02:57;7.20;1.00
38131;DHT22;23947;51.894;4.622;2023-01-10T05:05:23;7.20;1.00
38131;DHT22;23947;51.894;4.622;2023-01-10T05:07:48;7.20;1.00
38131;DHT22;23947;51.894;4.622;2023-01-10T05:10:14;7.10;1.00
38131;DHT22;23947;51.894;4.622;2023-01-10T05:12:40;7.10;1.00
38131;DHT22;23947;51.894;4.622;2023-01-10T05:15:06;7.00;1.00
38131;DHT22;23947;51.894;4.622;2023-01-10T05:17:32;7.10;1.00
38131;DHT22;23947;51.894;4.622;2023-01-10T05:19:57;7.10;1.00
38131;DHT22;23947;51.894;4.622;2023-01-10T05:22:23;7.00;1.00
38131;DHT22;23947;51.894;4.622;2023-01-10T05:24:49;7.00;1.00
38131;DHT22;23947;51.894;4.622;2023-01-10T05:27:15;7.00;1.00
38131;DHT22;23947;51.894;4.622;2023-01-10T05:29:40;7.00;1.00
38131;DHT22;23947;51.894;4.622;2023-01-10T05:32:06;7.00;1.00
38131;DHT22;23947;51.894;4.622;2023-01-10T05:34:32;6.90;1.00
38131;DHT22;23947;51.894;4.622;2023-01-10T05:36:57;6.90;1.00
38131;DHT22;23947;51.894;4.622;2023-01-10T05:39:23;6.90;1.00
38131;DHT22;23947;51.894;4.622;2023-01-10T05:41:49;7.00;1.00
38131;DHT22;23947;51.894;4.622;2023-01-10T05:44:14;6.90;1.00
38131;DHT22;23947;51.894;4.622;2023-01-10T05:46:40;6.90;1.00
38131;DHT22;23947;51.894;4.622;2023-01-10T05:49:06;6.90;1.00
38131;DHT22;23947;51.894;4.622;2023-01-10T05:51:31;6.90;1.00
38131;DHT22;23947;51.894;4.622;2023-01-10T05:53:57;7.00;1.00
38131;DHT22;23947;51.894;4.622;2023-01-10T05:56:23;6.90;1.00
38131;DHT22;23947;51.894;4.622;2023-01-10T05:58:50;6.90;1.00
38131;DHT22;23947;51.894;4.622;2023-01-10T06:01:15;6.90;1.00
38131;DHT22;23947;51.894;4.622;2023-01-10T06:03:41;6.90;1.00
38131;DHT22;23947;51.894;4.622;2023-01-10T06:06:07;6.90;1.00
38131;DHT22;23947;51.894;4.622;2023-01-10T06:08:33;7.00;1.00
38131;DHT22;23947;51.894;4.622;2023-01-10T06:11:02;7.00;1.00
38131;DHT22;23947;51.894;4.622;2023-01-10T06:13:27;7.00;1.00
38131;DHT22;23947;51.894;4.622;2023-01-10T06:15:53;7.00;1.00
38131;DHT22;23947;51.894;4.622;2023-01-10T06:18:19;6.90;1.00
38131;DHT22;23947;51.894;4.622;2023-01-10T06:20:44;6.80;1.00
38131;DHT22;23947;51.894;4.622;2023-01-10T06:23:10;6.80;1.00
38131;DHT22;23947;51.894;4.622;2023-01-10T06:25:37;6.80;1.00
38131;DHT22;23947;51.894;4.622;2023-01-10T06:28:05;6.80;1.00
38131;DHT22;23947;51.894;4.622;2023-01-10T06:30:31;6.80;1.00
38131;DHT22;23947;51.894;4.622;2023-01-10T06:33:05;6.70;1.00
38131;DHT22;23947;51.894;4.622;2023-01-10T06:35:31;6.60;1.00
38131;DHT22;23947;51.894;4.622;2023-01-10T06:37:57;6.60;1.00
38131;DHT22;23947;51.894;4.622;2023-01-10T06:40:23;6.60;1.00
38131;DHT22;23947;51.894;4.622;2023-01-10T06:42:49;6.50;1.00
38131;DHT22;23947;51.894;4.622;2023-01-10T06:45:15;6.50;1.00
38131;DHT22;23947;51.894;4.622;2023-01-10T06:47:41;6.60;1.00
38131;DHT22;23947;51.894;4.622;2023-01-10T06:50:07;6.60;1.00
38131;DHT22;23947;51.894;4.622;2023-01-10T06:52:33;6.50;1.00
38131;DHT22;23947;51.894;4.622;2023-01-10T06:54:59;6.50;1.00
38131;DHT22;23947;51.894;4.622;2023-01-10T06:57:24;6.50;1.00
38131;DHT22;23947;51.894;4.622;2023-01-10T06:59:50;6.50;1.00
38131;DHT22;23947;51.894;4.622;2023-01-10T07:02:16;6.50;1.00
38131;DHT22;23947;51.894;4.622;2023-01-10T07:04:42;6.50;1.00
38131;DHT22;23947;51.894;4.622;2023-01-10T07:07:07;6.40;1.00
38131;DHT22;23947;51.894;4.622;2023-01-10T07:09:33;6.40;1.00
38131;DHT22;23947;51.894;4.622;2023-01-10T07:11:58;6.40;1.00
38131;DHT22;23947;51.894;4.622;2023-01-10T07:14:24;6.30;1.00
38131;DHT22;23947;51.894;4.622;2023-01-10T07:16:50;6.20;1.00
38131;DHT22;23947;51.894;4.622;2023-01-10T07:19:15;6.10;1.00
38131;DHT22;23947;51.894;4.622;2023-01-10T07:21:42;6.10;1.00
38131;DHT22;23947;51.894;4.622;2023-01-10T07:24:08;6.00;1.00
38131;DHT22;23947;51.894;4.622;2023-01-10T07:26:34;5.90;1.00
38131;DHT22;23947;51.894;4.622;2023-01-10T07:29:00;5.90;1.00
38131;DHT22;23947;51.894;4.622;2023-01-10T07:31:26;5.90;1.00
38131;DHT22;23947;51.894;4.622;2023-01-10T07:33:52;5.80;1.00
38131;DHT22;23947;51.894;4.622;2023-01-10T07:36:19;5.80;1.00
38131;DHT22;23947;51.894;4.622;2023-01-10T07:38:45;5.70;1.00
38131;DHT22;23947;51.894;4.622;2023-01-10T07:41:10;5.70;1.00
38131;DHT22;23947;51.894;4.622;2023-01-10T07:43:36;5.80;1.00
38131;DHT22;23947;51.894;4.622;2023-01-10T07:46:04;5.80;1.00
38131;DHT22;23947;51.894;4.622;2023-01-10T07:48:31;5.80;1.00
38131;DHT22;23947;51.894;4.622;2023-01-10T07:50:58;5.70;1.00
38131;DHT22;23947;51.894;4.622;2023-01-10T07:53:25;5.70;1.00
38131;DHT22;23947;51.894;4.622;2023-01-10T07:55:51;5.70;1.00
38131;DHT22;23947;51.894;4.622;2023-01-10T07:58:17;5.70;1.00
38131;DHT22;23947;51.894;4.622;2023-01-10T08:00:42;5.70;1.00
38131;DHT22;23947;51.894;4.622;2023-01-10T08:03:11;5.70;1.00
38131;DHT22;23947;51.894;4.622;2023-01-10T08:05:37;5.60;1.00
38131;DHT22;23947;51.894;4.622;2023-01-10T08:08:10;5.60;1.00
38131;DHT22;23947;51.894;4.622;2023-01-10T08:10:37;5.60;1.00
38131;DHT22;23947;51.894;4.622;2023-01-10T08:13:03;5.60;1.00
38131;DHT22;23947;51.894;4.622;2023-01-10T08:15:29;5.60;1.00
38131;DHT22;23947;51.894;4.622;2023-01-10T08:18:02;5.70;1.00
38131;DHT22;23947;51.894;4.622;2023-01-10T08:20:28;5.70;1.00
38131;DHT22;23947;51.894;4.622;2023-01-10T08:22:59;5.70;1.00
38131;DHT22;23947;51.894;4.622;2023-01-10T08:25:25;5.70;1.00
38131;DHT22;23947;51.894;4.622;2023-01-10T08:27:51;5.60;1.00
38131;DHT22;23947;51.894;4.622;2023-01-10T08:30:17;5.60;1.00
38131;DHT22;23947;51.894;4.622;2023-01-10T08:32:43;5.70;1.00
38131;DHT22;23947;51.894;4.622;2023-01-10T08:35:09;5.70;1.00
38131;DHT22;23947;51.894;4.622;2023-01-10T08:37:35;5.70;1.00
38131;DHT22;23947;51.894;4.622;2023-01-10T08:40:01;5.70;1.00
38131;DHT22;23947;51.894;4.622;2023-01-10T08:42:26;5.70;1.00
38131;DHT22;23947;51.894;4.622;2023-01-10T08:44:52;5.70;1.00
38131;DHT22;23947;51.894;4.622;2023-01-10T08:47:19;5.70;1.00
38131;DHT22;23947;51.894;4.622;2023-01-10T08:49:44;5.70;1.00
38131;DHT22;23947;51.894;4.622;2023-01-10T08:52:11;5.70;1.00
38131;DHT22;23947;51.894;4.622;2023-01-10T08:54:37;5.70;1.00
38131;DHT22;23947;51.894;4.622;2023-01-10T08:57:03;5.80;1.00
38131;DHT22;23947;51.894;4.622;2023-01-10T08:59:28;5.80;1.00
38131;DHT22;23947;51.894;4.622;2023-01-10T09:01:54;5.80;1.00
38131;DHT22;23947;51.894;4.622;2023-01-10T09:04:23;5.80;1.00
38131;DHT22;23947;51.894;4.622;2023-01-10T09:06:48;5.80;1.00
38131;DHT22;23947;51.894;4.622;2023-01-10T09:09:14;5.80;1.00
38131;DHT22;23947;51.894;4.622;2023-01-10T09:11:40;5.80;1.00
38131;DHT22;23947;51.894;4.622;2023-01-10T09:14:05;5.80;1.00
38131;DHT22;23947;51.894;4.622;2023-01-10T09:16:32;5.70;1.00
38131;DHT22;23947;51.894;4.622;2023-01-10T09:18:57;5.70;1.00
38131;DHT22;23947;51.894;4.622;2023-01-10T09:21:23;5.70;1.00
38131;DHT22;23947;51.894;4.622;2023-01-10T09:23:49;5.70;1.00
38131;DHT22;23947;51.894;4.622;2023-01-10T09:26:14;5.60;1.00
38131;DHT22;23947;51.894;4.622;2023-01-10T09:28:40;5.60;1.00
38131;DHT22;23947;51.894;4.622;2023-01-10T09:31:06;5.70;1.00
38131;DHT22;23947;51.894;4.622;2023-01-10T09:33:33;5.60;1.00
38131;DHT22;23947;51.894;4.622;2023-01-10T09:35:59;5.70;1.00
38131;DHT22;23947;51.894;4.622;2023-01-10T09:38:25;5.70;1.00
38131;DHT22;23947;51.894;4.622;2023-01-10T09:43:45;5.70;1.00
38131;DHT22;23947;51.894;4.622;2023-01-10T09:46:25;5.70;1.00
38131;DHT22;23947;51.894;4.622;2023-01-10T09:49:06;5.70;1.00
38131;DHT22;23947;51.894;4.622;2023-01-10T09:51:38;5.70;1.00
38131;DHT22;23947;51.894;4.622;2023-01-10T09:54:14;5.70;1.00
38131;DHT22;23947;51.894;4.622;2023-01-10T09:56:41;5.70;1.00
38131;DHT22;23947;51.894;4.622;2023-01-10T09:59:16;5.80;1.00
38131;DHT22;23947;51.894;4.622;2023-01-10T10:01:42;5.70;1.00
38131;DHT22;23947;51.894;4.622;2023-01-10T10:04:22;5.80;1.00
38131;DHT22;23947;51.894;4.622;2023-01-10T10:06:51;5.80;1.00
38131;DHT22;23947;51.894;4.622;2023-01-10T10:09:26;5.80;1.00
38131;DHT22;23947;51.894;4.622;2023-01-10T10:14:32;5.80;1.00
38131;DHT22;23947;51.894;4.622;2023-01-10T10:25:03;5.80;1.00
38131;DHT22;23947;51.894;4.622;2023-01-10T10:28:10;5.80;1.00
38131;DHT22;23947;51.894;4.622;2023-01-10T10:31:01;5.90;1.00
38131;DHT22;23947;51.894;4.622;2023-01-10T10:33:44;5.80;1.00
38131;DHT22;23947;51.894;4.622;2023-01-10T10:36:29;5.80;1.00
38131;DHT22;23947;51.894;4.622;2023-01-10T10:39:00;5.80;1.00
38131;DHT22;23947;51.894;4.622;2023-01-10T10:41:33;5.80;1.00
38131;DHT22;23947;51.894;4.622;2023-01-10T10:44:02;5.80;1.00
38131;DHT22;23947;51.894;4.622;2023-01-10T10:46:32;5.90;1.00
38131;DHT22;23947;51.894;4.622;2023-01-10T10:49:12;6.00;1.00
38131;DHT22;23947;51.894;4.622;2023-01-10T10:51:49;6.00;1.00
38131;DHT22;23947;51.894;4.622;2023-01-10T10:54:15;6.00;1.00
38131;DHT22;23947;51.894;4.622;2023-01-10T10:56:41;6.00;1.00
38131;DHT22;23947;51.894;4.622;2023-01-10T10:59:08;6.00;1.00
38131;DHT22;23947;51.894;4.622;2023-01-10T11:01:34;6.00;1.00
38131;DHT22;23947;51.894;4.622;2023-01-10T11:04:09;6.10;1.00
38131;DHT22;23947;51.894;4.622;2023-01-10T11:06:36;6.20;1.00
38131;DHT22;23947;51.894;4.622;2023-01-10T11:09:05;6.10;1.00
38131;DHT22;23947;51.894;4.622;2023-01-10T11:11:34;6.20;1.00
38131;DHT22;23947;51.894;4.622;2023-01-10T11:14:04;6.20;1.00
38131;DHT22;23947;51.894;4.622;2023-01-10T11:16:35;6.30;1.00
38131;DHT22;23947;51.894;4.622;2023-01-10T11:19:25;6.30;1.00
38131;DHT22;23947;51.894;4.622;2023-01-10T11:21:56;6.20;1.00
38131;DHT22;23947;51.894;4.622;2023-01-10T11:24:37;6.20;1.00
38131;DHT22;23947;51.894;4.622;2023-01-10T11:27:21;6.40;1.00
38131;DHT22;23947;51.894;4.622;2023-01-10T11:32:19;6.40;1.00
38131;DHT22;23947;51.894;4.622;2023-01-10T11:34:58;6.40;1.00
38131;DHT22;23947;51.894;4.622;2023-01-10T11:37:27;6.40;1.00
38131;DHT22;23947;51.894;4.622;2023-01-10T11:40:20;6.50;1.00
38131;DHT22;23947;51.894;4.622;2023-01-10T11:42:48;6.40;1.00
38131;DHT22;23947;51.894;4.622;2023-01-10T11:45:22;6.50;1.00
38131;DHT22;23947;51.894;4.622;2023-01-10T11:47:58;6.50;1.00
38131;DHT22;23947;51.894;4.622;2023-01-10T11:50:26;6.50;1.00
38131;DHT22;23947;51.894;4.622;2023-01-10T11:52:54;6.50;1.00
38131;DHT22;23947;51.894;4.622;2023-01-10T11:55:25;6.50;1.00
38131;DHT22;23947;51.894;4.622;2023-01-10T11:58:18;6.60;1.00
38131;DHT22;23947;51.894;4.622;2023-01-10T12:00:48;6.60;1.00
38131;DHT22;23947;51.894;4.622;2023-01-10T12:03:43;6.70;1.00
38131;DHT22;23947;51.894;4.622;2023-01-10T12:06:14;6.80;1.00
38131;DHT22;23947;51.894;4.622;2023-01-10T12:08:41;6.70;1.00
38131;DHT22;23947;51.894;4.622;2023-01-10T12:13:51;6.80;1.00
38131;DHT22;23947;51.894;4.622;2023-01-10T12:18:43;6.80;1.00
38131;DHT22;23947;51.894;4.622;2023-01-10T12:21:11;6.80;1.00
38131;DHT22;23947;51.894;4.622;2023-01-10T12:23:39;6.90;1.00
38131;DHT22;23947;51.894;4.622;2023-01-10T12:26:10;6.90;1.00
38131;DHT22;23947;51.894;4.622;2023-01-10T12:28:55;6.90;1.00
38131;DHT22;23947;51.894;4.622;2023-01-10T12:31:22;6.90;1.00
38131;DHT22;23947;51.894;4.622;2023-01-10T12:33:57;6.90;1.00
38131;DHT22;23947;51.894;4.622;2023-01-10T12:36:41;6.90;1.00
38131;DHT22;23947;51.894;4.622;2023-01-10T12:39:29;7.00;1.00
38131;DHT22;23947;51.894;4.622;2023-01-10T12:42:58;7.00;1.00
38131;DHT22;23947;51.894;4.622;2023-01-10T12:45:51;7.00;1.00
38131;DHT22;23947;51.894;4.622;2023-01-10T12:48:41;7.10;1.00
38131;DHT22;23947;51.894;4.622;2023-01-10T12:51:13;7.10;1.00
38131;DHT22;23947;51.894;4.622;2023-01-10T12:53:58;7.00;1.00
38131;DHT22;23947;51.894;4.622;2023-01-10T12:56:28;7.00;1.00
38131;DHT22;23947;51.894;4.622;2023-01-10T12:59:06;7.10;1.00
38131;DHT22;23947;51.894;4.622;2023-01-10T13:01:36;7.10;1.00
38131;DHT22;23947;51.894;4.622;2023-01-10T13:04:12;7.10;1.00
38131;DHT22;23947;51.894;4.622;2023-01-10T13:06:41;7.00;1.00
38131;DHT22;23947;51.894;4.622;2023-01-10T13:09:15;7.00;1.00
38131;DHT22;23947;51.894;4.622;2023-01-10T13:14:25;7.10;1.00
38131;DHT22;23947;51.894;4.622;2023-01-10T13:19:33;7.00;1.00
38131;DHT22;23947;51.894;4.622;2023-01-10T13:22:33;7.00;1.00
38131;DHT22;23947;51.894;4.622;2023-01-10T13:25:00;6.90;1.00
38131;DHT22;23947;51.894;4.622;2023-01-10T13:27:32;6.90;1.00
38131;DHT22;23947;51.894;4.622;2023-01-10T13:29:58;6.90;1.00
38131;DHT22;23947;51.894;4.622;2023-01-10T13:32:28;6.90;1.00
38131;DHT22;23947;51.894;4.622;2023-01-10T13:35:17;6.90;1.00
38131;DHT22;23947;51.894;4.622;2023-01-10T13:37:50;6.90;1.00
38131;DHT22;23947;51.894;4.622;2023-01-10T13:44:14;6.80;1.00
38131;DHT22;23947;51.894;4.622;2023-01-10T13:46:48;6.80;1.00
38131;DHT22;23947;51.894;4.622;2023-01-10T13:54:58;6.80;1.00
38131;DHT22;23947;51.894;4.622;2023-01-10T13:57:47;6.80;1.00
38131;DHT22;23947;51.894;4.622;2023-01-10T14:00:24;6.80;1.00
38131;DHT22;23947;51.894;4.622;2023-01-10T14:08:58;6.70;1.00
38131;DHT22;23947;51.894;4.622;2023-01-10T14:16:56;6.70;1.00
38131;DHT22;23947;51.894;4.622;2023-01-10T14:19:31;6.70;1.00
38131;DHT22;23947;51.894;4.622;2023-01-10T14:21:59;6.70;1.00
38131;DHT22;23947;51.894;4.622;2023-01-10T14:24:42;6.70;1.00
38131;DHT22;23947;51.894;4.622;2023-01-10T14:27:14;6.80;1.00
38131;DHT22;23947;51.894;4.622;2023-01-10T14:29:54;6.80;1.00
38131;DHT22;23947;51.894;4.622;2023-01-10T14:35:01;6.70;1.00
38131;DHT22;23947;51.894;4.622;2023-01-10T14:37:43;6.70;1.00
38131;DHT22;23947;51.894;4.622;2023-01-10T14:40:43;6.70;1.00
38131;DHT22;23947;51.894;4.622;2023-01-10T14:43:15;6.70;1.00
38131;DHT22;23947;51.894;4.622;2023-01-10T14:46:21;6.70;1.00
38131;DHT22;23947;51.894;4.622;2023-01-10T14:48:49;6.60;1.00
38131;DHT22;23947;51.894;4.622;2023-01-10T14:51:18;6.60;1.00
38131;DHT22;23947;51.894;4.622;2023-01-10T14:53:47;6.60;1.00
38131;DHT22;23947;51.894;4.622;2023-01-10T14:56:28;6.60;1.00
38131;DHT22;23947;51.894;4.622;2023-01-10T14:58:54;6.60;1.00
38131;DHT22;23947;51.894;4.622;2023-01-10T15:01:23;6.60;1.00
38131;DHT22;23947;51.894;4.622;2023-01-10T15:03:50;6.50;1.00
38131;DHT22;23947;51.894;4.622;2023-01-10T15:07:11;6.50;1.00
38131;DHT22;23947;51.894;4.622;2023-01-10T15:09:14;6.50;1.00
38131;DHT22;23947;51.894;4.622;2023-01-10T15:11:40;6.50;1.00
38131;DHT22;23947;51.894;4.622;2023-01-10T15:14:06;6.50;1.00
38131;DHT22;23947;51.894;4.622;2023-01-10T15:16:33;6.60;1.00
38131;DHT22;23947;51.894;4.622;2023-01-10T15:18:59;6.50;1.00
38131;DHT22;23947;51.894;4.622;2023-01-10T15:21:25;6.50;1.00
38131;DHT22;23947;51.894;4.622;2023-01-10T15:23:51;6.50;1.00
38131;DHT22;23947;51.894;4.622;2023-01-10T15:26:26;6.50;1.00
38131;DHT22;23947;51.894;4.622;2023-01-10T15:29:15;6.50;1.00
38131;DHT22;23947;51.894;4.622;2023-01-10T15:31:43;6.50;1.00
38131;DHT22;23947;51.894;4.622;2023-01-10T15:34:25;6.50;1.00
38131;DHT22;23947;51.894;4.622;2023-01-10T15:36:56;6.50;1.00
38131;DHT22;23947;51.894;4.622;2023-01-10T15:39:28;6.50;1.00
38131;DHT22;23947;51.894;4.622;2023-01-10T15:42:02;6.50;1.00
38131;DHT22;23947;51.894;4.622;2023-01-10T15:47:01;6.50;1.00
38131;DHT22;23947;51.894;4.622;2023-01-10T15:49:27;6.50;1.00
38131;DHT22;23947;51.894;4.622;2023-01-10T15:51:54;6.60;1.00
38131;DHT22;23947;51.894;4.622;2023-01-10T15:57:05;6.50;1.00
38131;DHT22;23947;51.894;4.622;2023-01-10T15:59:35;6.50;1.00
38131;DHT22;23947;51.894;4.622;2023-01-10T16:04:40;6.60;1.00
38131;DHT22;23947;51.894;4.622;2023-01-10T16:07:11;6.50;1.00
38131;DHT22;23947;51.894;4.622;2023-01-10T16:09:39;6.50;1.00
38131;DHT22;23947;51.894;4.622;2023-01-10T16:12:05;6.50;1.00
38131;DHT22;23947;51.894;4.622;2023-01-10T16:14:49;6.50;1.00
38131;DHT22;23947;51.894;4.622;2023-01-10T16:17:15;6.50;1.00
38131;DHT22;23947;51.894;4.622;2023-01-10T16:19:40;6.50;1.00
38131;DHT22;23947;51.894;4.622;2023-01-10T16:22:06;6.50;1.00
38131;DHT22;23947;51.894;4.622;2023-01-10T16:24:34;6.50;1.00
38131;DHT22;23947;51.894;4.622;2023-01-10T16:27:03;6.50;1.00
38131;DHT22;23947;51.894;4.622;2023-01-10T16:29:30;6.60;1.00
38131;DHT22;23947;51.894;4.622;2023-01-10T16:31:56;6.50;1.00
38131;DHT22;23947;51.894;4.622;2023-01-10T16:34:22;6.50;1.00
38131;DHT22;23947;51.894;4.622;2023-01-10T16:36:50;6.60;1.00
38131;DHT22;23947;51.894;4.622;2023-01-10T16:39:21;6.60;1.00
38131;DHT22;23947;51.894;4.622;2023-01-10T16:41:47;6.70;1.00
38131;DHT22;23947;51.894;4.622;2023-01-10T16:44:33;6.60;1.00
38131;DHT22;23947;51.894;4.622;2023-01-10T16:46:59;6.70;1.00
38131;DHT22;23947;51.894;4.622;2023-01-10T16:49:25;6.70;1.00
38131;DHT22;23947;51.894;4.622;2023-01-10T16:51:52;6.70;1.00
38131;DHT22;23947;51.894;4.622;2023-01-10T16:54:20;6.80;1.00
38131;DHT22;23947;51.894;4.622;2023-01-10T16:56:47;6.80;1.00
38131;DHT22;23947;51.894;4.622;2023-01-10T16:59:14;6.80;1.00
38131;DHT22;23947;51.894;4.622;2023-01-10T17:01:47;6.80;1.00
38131;DHT22;23947;51.894;4.622;2023-01-10T17:04:18;6.90;1.00
38131;DHT22;23947;51.894;4.622;2023-01-10T17:06:45;6.90;1.00
38131;DHT22;23947;51.894;4.622;2023-01-10T17:09:21;6.90;1.00
38131;DHT22;23947;51.894;4.622;2023-01-10T17:11:54;6.90;1.00
38131;DHT22;23947;51.894;4.622;2023-01-10T17:14:29;7.00;1.00
38131;DHT22;23947;51.894;4.622;2023-01-10T17:16:55;7.00;1.00
38131;DHT22;23947;51.894;4.622;2023-01-10T17:19:21;7.10;1.00
38131;DHT22;23947;51.894;4.622;2023-01-10T17:21:46;7.10;1.00
38131;DHT22;23947;51.894;4.622;2023-01-10T17:24:12;7.10;1.00
38131;DHT22;23947;51.894;4.622;2023-01-10T17:26:38;7.10;1.00
38131;DHT22;23947;51.894;4.622;2023-01-10T17:29:03;7.20;1.00
38131;DHT22;23947;51.894;4.622;2023-01-10T17:31:29;7.20;1.00
38131;DHT22;23947;51.894;4.622;2023-01-10T17:33:55;7.20;1.00
38131;DHT22;23947;51.894;4.622;2023-01-10T17:36:20;7.30;1.00
38131;DHT22;23947;51.894;4.622;2023-01-10T17:38:47;7.30;1.00
38131;DHT22;23947;51.894;4.622;2023-01-10T17:41:12;7.30;1.00
38131;DHT22;23947;51.894;4.622;2023-01-10T17:43:38;7.30;1.00
38131;DHT22;23947;51.894;4.622;2023-01-10T17:46:04;7.40;1.00
38131;DHT22;23947;51.894;4.622;2023-01-10T17:48:30;7.40;1.00
38131;DHT22;23947;51.894;4.622;2023-01-10T17:50:58;7.40;1.00